Time,TemperatureF,DewpointF,PressureIn,WindDirection,WindDirectionDegrees,WindSpeedMPH,WindSpeedGustMPH,Humidity,HourlyPrecipIn,Conditions,Clouds,dailyrainin,SolarRadiationWatts/m^2,SoftwareType,DateUTC
2013-02-28 00:00:00,39.8,34.8,29.62,WNW,287,0.0,0.0,82,0.00,OVC,,0.02,0.0,WeatherDisplay:10.37,2013-02-28 05:00:00,
2013-02-28 00:01:00,39.8,34.8,29.62,WNW,287,0.0,0.0,82,0.00,RA,,0.00,0.0,WeatherDisplay:10.37,2013-02-28 05:01:00,
2013-02-28 00:06:00,39.8,34.8,29.62,WNW,287,0.0,0.0,82,0.00,RA,,0.00,0.0,WeatherDisplay:10.37,2013-02-28 05:06:00,
2013-02-28 00:11:00,39.8,34.8,29.61,WNW,287,0.0,0.0,82,0.00,OVC,,0.00,0.0,WeatherDisplay:10.37,2013-02-28 05:11:00,
2013-02-28 00:16:00,39.9,34.9,29.61,WNW,287,0.0,0.0,82,0.00,OVC,,0.00,0.0,WeatherDisplay:10.37,2013-02-28 05:16:00,
2013-02-28 00:21:00,40.1,35.0,29.61,WNW,287,0.0,0.0,82,0.00,OVC,,0.00,0.0,WeatherDisplay:10.37,2013-02-28 05:21:00,
2013-02-28 00:26:00,39.9,34.9,29.61,WNW,287,0.0,0.0,82,0.00,OVC,,0.00,0.0,WeatherDisplay:10.37,2013-02-28 05:26:00,
2013-02-28 00:31:00,40.1,35.0,29.60,WNW,287,0.0,0.0,82,0.00,OVC,,0.00,0.0,WeatherDisplay:10.37,2013-02-28 05:31:00,
2013-02-28 00:36:00,40.2,34.8,29.60,WNW,287,0.0,0.0,81,0.00,OVC,,0.00,0.0,WeatherDisplay:10.37,2013-02-28 05:36:00,
2013-02-28 00:41:00,40.2,35.1,29.60,WNW,287,0.0,0.0,82,0.00,OVC,,0.00,0.0,WeatherDisplay:10.37,2013-02-28 05:41:00,
2013-02-28 00:46:00,40.2,35.1,29.60,WNW,287,0.0,0.0,82,0.00,OVC,,0.00,0.0,WeatherDisplay:10.37,2013-02-28 05:46:00,
2013-02-28 00:51:00,40.2,35.1,29.60,WNW,287,0.0,0.0,82,0.00,OVC,,0.00,0.0,WeatherDisplay:10.37,2013-02-28 05:51:00,
2013-02-28 00:56:00,40.2,35.1,29.61,WNW,287,0.0,0.0,82,0.00,OVC,,0.00,0.0,WeatherDisplay:10.37,2013-02-28 05:56:00,
2013-02-28 01:01:00,40.1,35.4,29.61,WNW,287,0.0,0.0,83,0.00,OVC,,0.00,0.0,WeatherDisplay:10.37,2013-02-28 06:01:00,
2013-02-28 01:06:00,39.9,35.2,29.61,WNW,287,0.0,0.0,83,0.00,OVC,,0.00,0.0,WeatherDisplay:10.37,2013-02-28 06:06:00,
2013-02-28 01:11:00,39.8,35.4,29.61,WNW,287,0.0,0.0,84,0.00,OVC,,0.00,0.0,WeatherDisplay:10.37,2013-02-28 06:11:00,
2013-02-28 01:16:00,39.6,35.2,29.61,WNW,287,0.0,0.0,84,0.00,OVC,,0.00,0.0,WeatherDisplay:10.37,2013-02-28 06:16:00,
2013-02-28 01:21:00,39.6,35.2,29.61,WNW,287,0.0,0.0,84,0.00,OVC,,0.00,0.0,WeatherDisplay:10.37,2013-02-28 06:21:00,
2013-02-28 01:26:00,39.5,35.1,29.61,WNW,287,0.0,0.0,84,0.00,OVC,,0.00,0.0,WeatherDisplay:10.37,2013-02-28 06:26:00,
2013-02-28 01:31:00,39.5,35.4,29.61,WNW,287,0.0,0.0,85,0.00,OVC,,0.00,0.0,WeatherDisplay:10.37,2013-02-28 06:31:00,
2013-02-28 01:36:00,39.5,35.4,29.62,WNW,287,0.0,0.0,85,0.00,OVC,,0.00,0.0,WeatherDisplay:10.37,2013-02-28 06:36:00,
2013-02-28 01:41:00,39.5,35.4,29.61,WNW,287,0.0,0.0,85,0.00,OVC,,0.00,0.0,WeatherDisplay:10.37,2013-02-28 06:41:00,
2013-02-28 01:46:00,39.5,35.1,29.61,WNW,287,0.0,0.0,84,0.00,OVC,,0.00,0.0,WeatherDisplay:10.37,2013-02-28 06:46:00,
2013-02-28 01:51:00,39.5,35.1,29.61,WNW,287,0.0,0.0,84,0.00,OVC,,0.00,0.0,WeatherDisplay:10.37,2013-02-28 06:51:00,
2013-02-28 01:56:00,39.5,35.1,29.61,WNW,287,0.0,0.0,84,0.00,OVC,,0.00,0.0,WeatherDisplay:10.37,2013-02-28 06:56:00,
2013-02-28 02:01:00,39.6,34.9,29.61,WNW,287,0.0,0.0,83,0.00,OVC,,0.00,0.0,WeatherDisplay:10.37,2013-02-28 07:01:00,
2013-02-28 02:06:00,39.9,34.9,29.61,WNW,287,0.1,1.5,82,0.00,OVC,,0.00,0.0,WeatherDisplay:10.37,2013-02-28 07:06:00,
2013-02-28 02:11:00,40.2,34.8,29.61,WNW,287,0.0,1.5,81,0.00,OVC,,0.00,0.0,WeatherDisplay:10.37,2013-02-28 07:11:00,
2013-02-28 02:16:00,40.6,34.0,29.61,WNW,299,8.5,9.2,77,0.00,OVC,,0.00,0.0,WeatherDisplay:10.37,2013-02-28 07:16:00,
2013-02-28 02:21:00,41.2,33.5,29.61,WNW,298,3.7,4.5,74,0.00,OVC,,0.00,0.0,WeatherDisplay:10.37,2013-02-28 07:21:00,
2013-02-28 02:26:00,41.5,33.1,29.61,West,276,4.1,4.6,72,0.00,OVC,,0.00,0.0,WeatherDisplay:10.37,2013-02-28 07:26:00,
2013-02-28 02:31:00,41.5,32.8,29.61,WSW,257,4.1,5.8,71,0.00,OVC,,0.00,0.0,WeatherDisplay:10.37,2013-02-28 07:31:00,
2013-02-28 02:36:00,41.5,32.4,29.61,WNW,282,4.1,5.8,70,0.00,OVC,,0.00,0.0,WeatherDisplay:10.37,2013-02-28 07:36:00,
2013-02-28 02:41:00,41.3,31.9,29.60,WNW,284,4.4,4.6,69,0.00,OVC,,0.00,0.0,WeatherDisplay:10.37,2013-02-28 07:41:00,
2013-02-28 02:46:00,41.1,31.7,29.61,West,262,0.9,4.6,69,0.00,OVC,,0.00,0.0,WeatherDisplay:10.37,2013-02-28 07:46:00,
2013-02-28 02:51:00,40.6,31.2,29.61,WNW,295,5.7,6.0,69,0.00,OVC,,0.00,0.0,WeatherDisplay:10.37,2013-02-28 07:51:00,
2013-02-28 02:56:00,40.3,30.9,29.61,NW,317,7.5,9.2,69,0.00,OVC,,0.00,0.0,WeatherDisplay:10.37,2013-02-28 07:56:00,
2013-02-28 03:02:00,40.2,30.8,29.61,NW,317,5.0,7.5,69,0.00,-RA,,0.00,0.0,WeatherDisplay:10.37,2013-02-28 08:02:00,
2013-02-28 03:07:00,40.1,30.7,29.61,NW,316,3.6,3.6,69,0.00,-RA,,0.00,0.0,WeatherDisplay:10.37,2013-02-28 08:07:00,
2013-02-28 03:12:00,39.8,30.5,29.61,NW,316,1.1,4.6,69,0.00,-RA,,0.00,0.0,WeatherDisplay:10.37,2013-02-28 08:12:00,
2013-02-28 03:17:00,39.6,30.3,29.61,NW,310,5.5,5.8,69,0.00,-RA,,0.00,0.0,WeatherDisplay:10.37,2013-02-28 08:17:00,
2013-02-28 03:22:00,39.6,30.3,29.61,NW,319,15.3,16.5,69,0.00,-RA,,0.00,0.0,WeatherDisplay:10.37,2013-02-28 08:22:00,
2013-02-28 03:27:00,39.9,29.8,29.61,WNW,296,7.6,10.4,67,0.00,-RA,,0.00,0.0,WeatherDisplay:10.37,2013-02-28 08:27:00,
2013-02-28 03:32:00,39.9,29.5,29.61,WNW,286,6.4,9.2,66,0.00,-RA,,0.00,0.0,WeatherDisplay:10.37,2013-02-28 08:32:00,
2013-02-28 03:37:00,39.8,29.4,29.61,West,281,4.6,8.1,66,0.00,-RA,,0.00,0.0,WeatherDisplay:10.37,2013-02-28 08:37:00,
2013-02-28 03:42:00,39.5,28.3,29.61,NW,308,9.8,12.0,64,0.00,-RA,,0.00,0.0,WeatherDisplay:10.37,2013-02-28 08:42:00,
2013-02-28 03:47:00,39.5,28.7,29.61,WNW,296,11.0,12.0,65,0.00,-RA,,0.00,0.0,WeatherDisplay:10.37,2013-02-28 08:47:00,
2013-02-28 03:52:00,39.3,28.5,29.61,WNW,300,10.2,10.4,65,0.00,-RA,,0.00,0.0,WeatherDisplay:10.37,2013-02-28 08:52:00,
2013-02-28 03:57:00,39.1,28.3,29.61,WNW,295,4.1,10.4,65,0.00,-RA,,0.00,0.0,WeatherDisplay:10.37,2013-02-28 08:57:00,
2013-02-28 04:02:00,38.8,28.0,29.61,NW,313,4.8,6.0,65,0.00,OVC,,0.00,0.0,WeatherDisplay:10.37,2013-02-28 09:02:00,
2013-02-28 04:07:00,38.8,28.0,29.62,WNW,300,1.2,8.1,65,0.00,OVC,,0.00,0.0,WeatherDisplay:10.37,2013-02-28 09:07:00,
2013-02-28 04:12:00,38.6,27.8,29.61,WNW,296,6.2,13.8,65,0.00,OVC,,0.00,0.0,WeatherDisplay:10.37,2013-02-28 09:12:00,
2013-02-28 04:17:00,38.8,28.0,29.61,WNW,303,7.7,9.2,65,0.00,OVC,,0.00,0.0,WeatherDisplay:10.37,2013-02-28 09:17:00,
2013-02-28 04:22:00,38.9,27.8,29.62,WNW,297,1.9,3.5,64,0.00,OVC,,0.00,0.0,WeatherDisplay:10.37,2013-02-28 09:22:00,
2013-02-28 04:27:00,38.9,27.8,29.62,WNW,297,0.1,3.5,64,0.00,OVC,,0.00,0.0,WeatherDisplay:10.37,2013-02-28 09:27:00,
2013-02-28 04:32:00,38.8,28.0,29.62,WNW,296,0.0,0.0,65,0.00,OVC,,0.00,0.0,WeatherDisplay:10.37,2013-02-28 09:32:00,
2013-02-28 04:37:00,38.5,27.7,29.62,WNW,296,0.0,0.0,65,0.00,OVC,,0.00,0.0,WeatherDisplay:10.37,2013-02-28 09:37:00,
2013-02-28 04:42:00,38.2,27.5,29.62,WNW,296,0.0,0.0,65,0.00,OVC,,0.00,0.0,WeatherDisplay:10.37,2013-02-28 09:42:00,
2013-02-28 04:47:00,37.9,27.2,29.62,WNW,296,0.1,1.1,65,0.00,OVC,,0.00,0.0,WeatherDisplay:10.37,2013-02-28 09:47:00,
2013-02-28 04:52:00,37.6,27.3,29.62,WNW,296,0.9,3.5,66,0.00,OVC,,0.00,0.0,WeatherDisplay:10.37,2013-02-28 09:52:00,
2013-02-28 04:57:00,37.3,27.0,29.62,WNW,296,1.7,4.6,66,0.00,OVC,,0.00,0.0,WeatherDisplay:10.37,2013-02-28 09:57:00,
2013-02-28 05:02:00,37.3,27.0,29.62,WNW,296,1.2,3.5,66,0.00,OVC,,0.00,0.0,WeatherDisplay:10.37,2013-02-28 10:02:00,
2013-02-28 05:07:00,37.2,26.9,29.63,WNW,296,1.5,3.5,66,0.00,OVC,,0.00,0.0,WeatherDisplay:10.37,2013-02-28 10:07:00,
2013-02-28 05:12:00,37.2,26.9,29.63,WNW,296,0.0,0.0,66,0.00,OVC,,0.00,0.0,WeatherDisplay:10.37,2013-02-28 10:12:00,
2013-02-28 05:17:00,37.0,26.7,29.63,WNW,296,0.9,3.0,66,0.00,OVC,,0.00,0.0,WeatherDisplay:10.37,2013-02-28 10:17:00,
2013-02-28 05:22:00,36.9,26.6,29.63,WNW,296,2.9,7.5,66,0.00,OVC,,0.00,0.0,WeatherDisplay:10.37,2013-02-28 10:22:00,
2013-02-28 05:27:00,36.8,26.5,29.62,WNW,296,4.8,6.0,66,0.00,OVC,,0.00,0.0,WeatherDisplay:10.37,2013-02-28 10:27:00,
2013-02-28 05:32:00,36.9,26.6,29.63,WNW,295,0.5,3.5,66,0.00,OVC,,0.00,0.0,WeatherDisplay:10.37,2013-02-28 10:32:00,
2013-02-28 05:37:00,36.8,26.5,29.63,WNW,295,0.5,3.5,66,0.00,OVC,,0.00,0.0,WeatherDisplay:10.37,2013-02-28 10:37:00,
2013-02-28 05:42:00,36.6,26.3,29.63,WNW,295,0.3,1.5,66,0.00,OVC,,0.00,0.0,WeatherDisplay:10.37,2013-02-28 10:42:00,
2013-02-28 05:47:00,36.3,26.0,29.63,WNW,296,0.0,0.0,66,0.00,OVC,,0.00,0.0,WeatherDisplay:10.37,2013-02-28 10:47:00,
2013-02-28 05:52:00,36.0,26.1,29.63,WNW,296,0.0,0.0,67,0.00,OVC,,0.00,0.0,WeatherDisplay:10.37,2013-02-28 10:52:00,
2013-02-28 05:57:00,35.9,26.0,29.63,WNW,295,0.0,0.0,67,0.00,OVC,,0.00,0.0,WeatherDisplay:10.37,2013-02-28 10:57:00,
2013-02-28 06:02:00,35.8,25.9,29.63,WNW,295,0.0,0.0,67,0.00,OVC,,0.00,0.0,WeatherDisplay:10.37,2013-02-28 11:02:00,
2013-02-28 06:07:00,35.3,25.4,29.63,WNW,295,0.0,0.0,67,0.00,OVC,,0.00,0.0,WeatherDisplay:10.37,2013-02-28 11:07:00,
2013-02-28 06:12:00,34.1,24.6,29.63,WNW,295,0.0,0.0,68,0.00,OVC,,0.00,0.0,WeatherDisplay:10.37,2013-02-28 11:12:00,
2013-02-28 06:17:00,33.2,24.5,29.63,WNW,296,3.4,3.5,70,0.00,OVC,,0.00,0.0,WeatherDisplay:10.37,2013-02-28 11:17:00,
2013-02-28 06:22:00,32.9,24.9,29.63,WNW,295,1.0,4.5,72,0.00,OVC,,0.00,0.0,WeatherDisplay:10.37,2013-02-28 11:22:00,
2013-02-28 06:27:00,32.8,25.1,29.63,WNW,295,0.0,0.0,73,0.00,OVC,,0.00,0.0,WeatherDisplay:10.37,2013-02-28 11:27:00,
2013-02-28 06:32:00,32.8,25.1,29.64,WNW,295,0.0,0.0,73,0.00,OVC,,0.00,0.0,WeatherDisplay:10.37,2013-02-28 11:32:00,
2013-02-28 06:37:00,32.5,25.1,29.64,WNW,295,0.0,0.0,74,0.00,OVC,,0.00,0.0,WeatherDisplay:10.37,2013-02-28 11:37:00,
2013-02-28 06:42:00,32.5,25.1,29.64,WNW,295,0.0,0.0,74,0.00,OVC,,0.00,0.0,WeatherDisplay:10.37,2013-02-28 11:42:00,
2013-02-28 06:47:00,32.8,25.4,29.64,WNW,296,0.0,0.0,74,0.00,OVC,,0.00,0.0,WeatherDisplay:10.37,2013-02-28 11:47:00,
2013-02-28 06:52:00,33.1,25.4,29.64,WNW,296,0.0,0.0,73,0.00,OVC,,0.00,0.0,WeatherDisplay:10.37,2013-02-28 11:52:00,
2013-02-28 06:57:00,33.8,25.7,29.64,WNW,292,1.3,3.0,72,0.00,OVC,,0.00,7.0,WeatherDisplay:10.37,2013-02-28 11:57:00,
2013-02-28 07:02:00,34.6,25.8,29.64,WNW,292,0.2,1.5,70,0.00,BKN,,0.00,11.0,WeatherDisplay:10.37,2013-02-28 12:02:00,
2013-02-28 07:07:00,35.0,25.9,29.64,WNW,292,0.1,3.0,69,0.00,BKN,,0.00,14.0,WeatherDisplay:10.37,2013-02-28 12:07:00,
2013-02-28 07:12:00,35.5,25.6,29.64,WNW,292,0.0,0.0,67,0.00,BKN,,0.00,18.0,WeatherDisplay:10.37,2013-02-28 12:12:00,
2013-02-28 07:17:00,35.8,25.9,29.64,WNW,292,0.0,0.0,67,0.00,BKN,,0.00,26.0,WeatherDisplay:10.37,2013-02-28 12:17:00,
2013-02-28 07:22:00,35.8,25.5,29.64,WNW,292,0.0,0.0,66,0.00,BKN,,0.00,30.0,WeatherDisplay:10.37,2013-02-28 12:22:00,
2013-02-28 07:27:00,35.8,25.5,29.64,WNW,292,0.0,0.0,66,0.00,BKN,,0.00,42.0,WeatherDisplay:10.37,2013-02-28 12:27:00,
2013-02-28 07:32:00,35.9,25.6,29.64,WNW,292,0.0,0.0,66,0.00,BKN,,0.00,77.0,WeatherDisplay:10.37,2013-02-28 12:32:00,
2013-02-28 07:37:00,36.5,26.2,29.64,WNW,292,0.0,0.0,66,0.00,BKN,,0.00,91.0,WeatherDisplay:10.37,2013-02-28 12:37:00,
2013-02-28 07:42:00,36.9,26.2,29.64,WNW,292,0.0,0.0,65,0.00,BKN,,0.00,113.0,WeatherDisplay:10.37,2013-02-28 12:42:00,
2013-02-28 07:48:00,37.2,26.1,29.64,WNW,292,0.0,0.0,64,0.00,BKN,,0.00,132.0,WeatherDisplay:10.37,2013-02-28 12:48:00,
2013-02-28 07:53:00,37.5,26.4,29.64,WNW,292,0.0,0.0,64,0.00,BKN,,0.00,146.0,WeatherDisplay:10.37,2013-02-28 12:53:00,
2013-02-28 07:58:00,37.8,26.3,29.64,WNW,292,0.8,3.0,63,0.00,BKN,,0.00,151.0,WeatherDisplay:10.37,2013-02-28 12:58:00,
2013-02-28 08:03:00,38.2,26.3,29.64,WNW,292,1.6,3.5,62,0.00,SCT,,0.00,171.0,WeatherDisplay:10.37,2013-02-28 13:03:00,
2013-02-28 08:08:00,38.8,26.9,29.64,WNW,292,2.1,3.0,62,0.00,SCT,,0.00,239.0,WeatherDisplay:10.37,2013-02-28 13:08:00,
2013-02-28 08:13:00,39.2,26.9,29.64,West,278,3.1,5.8,61,0.00,SCT,,0.00,148.0,WeatherDisplay:10.37,2013-02-28 13:13:00,
2013-02-28 08:18:00,39.5,26.3,29.64,West,273,0.8,4.6,59,0.00,SCT,,0.00,163.0,WeatherDisplay:10.37,2013-02-28 13:18:00,
2013-02-28 08:23:00,39.6,26.4,29.64,West,274,6.8,8.1,59,0.00,SCT,,0.00,202.0,WeatherDisplay:10.37,2013-02-28 13:23:00,
2013-02-28 08:28:00,39.9,26.7,29.64,WNW,293,5.9,8.1,59,0.00,SCT,,0.00,135.0,WeatherDisplay:10.37,2013-02-28 13:28:00,
2013-02-28 08:33:00,40.1,26.9,29.64,West,271,4.1,4.5,59,0.00,SCT,,0.00,135.0,WeatherDisplay:10.37,2013-02-28 13:33:00,
2013-02-28 08:38:00,40.2,26.6,29.64,West,273,6.5,9.2,58,0.00,SCT,,0.00,160.0,WeatherDisplay:10.37,2013-02-28 13:38:00,
2013-02-28 08:43:00,40.2,26.6,29.64,West,272,8.5,13.8,58,0.00,SCT,,0.00,288.0,WeatherDisplay:10.37,2013-02-28 13:43:00,
2013-02-28 08:48:00,40.3,26.3,29.64,WSW,255,8.6,9.0,57,0.00,SCT,,0.00,158.0,WeatherDisplay:10.37,2013-02-28 13:48:00,
2013-02-28 08:53:00,40.3,26.3,29.64,WSW,254,4.1,6.0,57,0.00,SCT,,0.00,134.0,WeatherDisplay:10.37,2013-02-28 13:53:00,
2013-02-28 08:58:00,40.3,26.3,29.64,WSW,254,1.4,4.6,57,0.00,SCT,,0.00,125.0,WeatherDisplay:10.37,2013-02-28 13:58:00,
2013-02-28 09:03:00,40.3,26.7,29.64,SW,232,3.0,6.0,58,0.00,SCT,,0.00,148.0,WeatherDisplay:10.37,2013-02-28 14:03:00,
2013-02-28 09:08:00,40.5,26.4,29.64,WSW,246,6.2,8.1,57,0.00,SCT,,0.00,234.0,WeatherDisplay:10.37,2013-02-28 14:08:00,
2013-02-28 09:13:00,40.8,27.6,29.64,SW,221,6.4,9.2,59,0.00,BKN,,0.00,295.0,WeatherDisplay:10.37,2013-02-28 14:13:00,
2013-02-28 09:18:00,41.1,27.4,29.64,SW,234,8.4,12.0,58,0.00,BKN,,0.00,292.0,WeatherDisplay:10.37,2013-02-28 14:18:00,
2013-02-28 09:23:00,41.3,26.8,29.64,SW,235,5.4,10.5,56,0.00,BKN,,0.00,336.0,WeatherDisplay:10.37,2013-02-28 14:23:00,
2013-02-28 09:28:00,41.5,27.0,29.64,SW,219,10.8,10.8,56,0.00,BKN,,0.00,473.0,WeatherDisplay:10.37,2013-02-28 14:28:00,
2013-02-28 09:33:00,41.6,27.5,29.64,NW,311,7.6,15.0,57,0.00,BKN,,0.00,476.0,WeatherDisplay:10.37,2013-02-28 14:33:00,
2013-02-28 09:38:00,42.1,27.5,29.64,WNW,288,6.2,8.1,56,0.00,BKN,,0.00,374.0,WeatherDisplay:10.37,2013-02-28 14:38:00,
2013-02-28 09:43:00,42.1,27.1,29.64,West,269,11.4,15.0,55,0.00,BKN,,0.00,366.0,WeatherDisplay:10.37,2013-02-28 14:43:00,
2013-02-28 09:49:00,41.6,26.2,29.63,WNW,295,6.7,18.4,54,0.00,BKN,,0.00,329.0,WeatherDisplay:10.37,2013-02-28 14:49:00,
2013-02-28 09:54:00,41.6,26.6,29.63,WNW,289,9.6,16.1,55,0.00,BKN,,0.00,369.0,WeatherDisplay:10.37,2013-02-28 14:54:00,
2013-02-28 09:59:00,41.8,27.2,29.63,WNW,297,7.9,8.1,56,0.00,BKN,,0.00,338.0,WeatherDisplay:10.37,2013-02-28 14:59:00,
2013-02-28 10:04:00,42.1,27.5,29.63,WSW,246,8.1,11.5,56,0.00,BKN,,0.00,287.0,WeatherDisplay:10.37,2013-02-28 15:04:00,
2013-02-28 10:09:00,42.1,27.1,29.63,NW,306,9.3,9.3,55,0.00,BKN,,0.00,316.0,WeatherDisplay:10.37,2013-02-28 15:09:00,
2013-02-28 10:14:00,42.1,27.1,29.63,SW,236,14.6,16.1,55,0.00,CLR,,0.00,301.0,WeatherDisplay:10.37,2013-02-28 15:14:00,
2013-02-28 10:19:00,42.1,26.6,29.63,WNW,289,17.1,18.4,54,0.00,CLR,,0.00,316.0,WeatherDisplay:10.37,2013-02-28 15:19:00,
2013-02-28 10:24:00,42.1,27.1,29.63,WNW,293,13.3,16.5,55,0.00,CLR,,0.00,348.0,WeatherDisplay:10.37,2013-02-28 15:24:00,
2013-02-28 10:29:00,42.2,26.7,29.63,West,265,5.0,8.1,54,0.00,CLR,,0.00,418.0,WeatherDisplay:10.37,2013-02-28 15:29:00,
2013-02-28 10:34:00,42.6,26.6,29.63,WNW,300,17.6,18.4,53,0.00,CLR,,0.00,445.0,WeatherDisplay:10.37,2013-02-28 15:34:00,
2013-02-28 10:39:00,42.6,27.1,29.63,WSW,244,14.9,16.1,54,0.00,CLR,,0.00,431.0,WeatherDisplay:10.37,2013-02-28 15:39:00,
2013-02-28 10:44:00,42.6,26.6,29.63,WNW,284,11.9,16.1,53,0.00,CLR,,0.00,315.0,WeatherDisplay:10.37,2013-02-28 15:44:00,
2013-02-28 10:49:00,42.5,26.6,29.63,WNW,299,19.4,20.7,53,0.00,CLR,,0.00,339.0,WeatherDisplay:10.37,2013-02-28 15:49:00,
2013-02-28 10:54:00,42.3,26.4,29.63,West,277,9.4,15.0,53,0.00,CLR,,0.00,178.0,WeatherDisplay:10.37,2013-02-28 15:54:00,
2013-02-28 10:59:00,41.9,26.0,29.63,WNW,291,15.7,19.6,53,0.00,CLR,,0.00,262.0,WeatherDisplay:10.37,2013-02-28 15:59:00,
2013-02-28 11:04:00,41.9,26.4,29.63,WSW,238,10.5,10.5,54,0.00,CLR,,0.00,156.0,WeatherDisplay:10.37,2013-02-28 16:04:00,
2013-02-28 11:09:00,41.8,26.4,29.64,WNW,299,14.0,18.4,54,0.00,CLR,,0.00,169.0,WeatherDisplay:10.37,2013-02-28 16:09:00,
2013-02-28 11:14:00,41.5,26.1,29.64,WSW,248,11.0,15.0,54,0.00,BKN,,0.00,193.0,WeatherDisplay:10.37,2013-02-28 16:14:00,
2013-02-28 11:19:00,41.6,26.6,29.64,WSW,253,14.1,18.0,55,0.00,BKN,,0.00,192.0,WeatherDisplay:10.37,2013-02-28 16:19:00,
2013-02-28 11:24:00,41.5,26.5,29.64,SW,221,18.2,21.0,55,0.00,BKN,,0.00,206.0,WeatherDisplay:10.37,2013-02-28 16:24:00,
2013-02-28 11:29:00,41.3,26.8,29.64,WSW,258,15.3,18.4,56,0.00,BKN,,0.00,207.0,WeatherDisplay:10.37,2013-02-28 16:29:00,
2013-02-28 11:34:00,41.2,27.1,29.64,West,273,9.2,16.1,57,0.00,BKN,,0.00,260.0,WeatherDisplay:10.37,2013-02-28 16:34:00,
2013-02-28 11:39:00,41.3,27.6,29.64,WSW,244,11.8,15.0,58,0.00,BKN,,0.00,299.0,WeatherDisplay:10.37,2013-02-28 16:39:00,
2013-02-28 11:44:00,41.5,27.4,29.64,West,264,15.0,19.6,57,0.00,BKN,,0.00,330.0,WeatherDisplay:10.37,2013-02-28 16:44:00,
2013-02-28 11:49:00,41.3,26.8,29.64,WSW,256,15.0,20.7,56,0.00,BKN,,0.00,343.0,WeatherDisplay:10.37,2013-02-28 16:49:00,
2013-02-28 11:54:00,41.5,27.0,29.64,NW,311,25.1,25.1,56,0.00,BKN,,0.00,299.0,WeatherDisplay:10.37,2013-02-28 16:54:00,
2013-02-28 11:59:00,41.3,26.8,29.64,West,271,8.0,15.0,56,0.00,BKN,,0.00,274.0,WeatherDisplay:10.37,2013-02-28 16:59:00,
2013-02-28 12:04:00,41.3,27.6,29.64,West,274,9.5,19.6,58,0.00,BKN,,0.00,216.0,WeatherDisplay:10.37,2013-02-28 17:04:00,
2013-02-28 12:09:00,41.3,27.6,29.64,West,279,13.4,16.1,58,0.00,BKN,,0.00,234.0,WeatherDisplay:10.37,2013-02-28 17:09:00,
2013-02-28 12:14:00,41.3,27.6,29.64,WSW,241,17.2,19.6,58,0.00,BKN,,0.00,237.0,WeatherDisplay:10.37,2013-02-28 17:14:00,
2013-02-28 12:19:00,41.3,27.6,29.64,West,259,10.7,12.0,58,0.00,BKN,,0.00,276.0,WeatherDisplay:10.37,2013-02-28 17:19:00,
2013-02-28 12:24:00,41.5,27.8,29.63,West,277,9.4,16.1,58,0.00,BKN,,0.00,295.0,WeatherDisplay:10.37,2013-02-28 17:24:00,
2013-02-28 12:29:00,41.8,27.7,29.63,West,265,9.5,15.0,57,0.00,BKN,,0.00,316.0,WeatherDisplay:10.37,2013-02-28 17:29:00,
2013-02-28 12:34:00,41.6,27.1,29.64,WNW,284,13.1,18.4,56,0.00,BKN,,0.00,364.0,WeatherDisplay:10.37,2013-02-28 17:34:00,
2013-02-28 12:39:00,41.9,27.3,29.63,WSW,244,12.5,23.0,56,0.00,BKN,,0.00,357.0,WeatherDisplay:10.37,2013-02-28 17:39:00,
2013-02-28 12:44:00,41.9,26.9,29.63,West,277,19.4,22.5,55,0.00,BKN,,0.00,364.0,WeatherDisplay:10.37,2013-02-28 17:44:00,
2013-02-28 12:50:00,41.9,27.3,29.63,SW,228,21.3,24.0,56,0.00,BKN,,0.00,325.0,WeatherDisplay:10.37,2013-02-28 17:50:00,
2013-02-28 12:55:00,41.6,26.6,29.63,WNW,292,10.5,15.0,55,0.00,BKN,,0.00,309.0,WeatherDisplay:10.37,2013-02-28 17:55:00,
2013-02-28 13:00:00,41.8,26.8,29.63,NW,310,21.1,25.3,55,0.00,BKN,,0.00,332.0,WeatherDisplay:10.37,2013-02-28 18:00:00,
2013-02-28 13:05:00,42.1,27.5,29.63,NW,315,13.0,18.4,56,0.00,OVC,,0.00,388.0,WeatherDisplay:10.37,2013-02-28 18:05:00,
2013-02-28 13:10:00,42.2,26.7,29.63,West,279,15.7,19.6,54,0.00,OVC,,0.00,388.0,WeatherDisplay:10.37,2013-02-28 18:10:00,
2013-02-28 13:15:00,42.5,26.6,29.62,WNW,292,14.0,16.1,53,0.00,OVC,,0.00,253.0,WeatherDisplay:10.37,2013-02-28 18:15:00,
2013-02-28 13:20:00,42.6,26.2,29.62,West,281,17.4,18.4,52,0.00,OVC,,0.00,250.0,WeatherDisplay:10.37,2013-02-28 18:20:00,
2013-02-28 13:25:00,42.5,25.6,29.62,WSW,248,16.3,20.7,51,0.00,OVC,,0.00,271.0,WeatherDisplay:10.37,2013-02-28 18:25:00,
2013-02-28 13:30:00,42.3,25.9,29.62,WNW,301,13.9,16.1,52,0.00,OVC,,0.00,206.0,WeatherDisplay:10.37,2013-02-28 18:30:00,
2013-02-28 13:35:00,42.1,25.7,29.62,WNW,285,10.5,13.8,52,0.00,OVC,,0.00,158.0,WeatherDisplay:10.37,2013-02-28 18:35:00,
2013-02-28 13:40:00,42.2,25.8,29.62,NW,307,16.4,22.5,52,0.00,OVC,,0.00,227.0,WeatherDisplay:10.37,2013-02-28 18:40:00,
2013-02-28 13:45:00,42.1,25.7,29.62,West,279,19.6,21.0,52,0.00,OVC,,0.00,200.0,WeatherDisplay:10.37,2013-02-28 18:45:00,
2013-02-28 13:50:00,41.8,25.9,29.61,West,265,7.2,18.4,53,0.00,OVC,,0.00,169.0,WeatherDisplay:10.37,2013-02-28 18:50:00,
2013-02-28 13:55:00,41.8,26.8,29.61,SW,236,9.0,10.5,55,0.00,OVC,,0.00,207.0,WeatherDisplay:10.37,2013-02-28 18:55:00,
2013-02-28 14:00:00,41.8,25.9,29.61,WNW,288,14.9,18.0,53,0.00,OVC,,0.00,195.0,WeatherDisplay:10.37,2013-02-28 19:00:00,
2013-02-28 14:05:00,41.9,25.5,29.61,NW,309,22.7,24.2,52,0.00,OVC,,0.00,218.0,WeatherDisplay:10.37,2013-02-28 19:05:00,
2013-02-28 14:10:00,42.1,25.3,29.61,West,272,15.6,21.0,51,0.00,OVC,,0.00,213.0,WeatherDisplay:10.37,2013-02-28 19:10:00,
2013-02-28 14:15:00,42.1,24.8,29.61,West,275,19.8,23.0,50,0.00,OVC,,0.00,174.0,WeatherDisplay:10.37,2013-02-28 19:15:00,
2013-02-28 14:20:00,42.1,25.3,29.61,NW,305,15.1,16.5,51,0.00,OVC,,0.00,290.0,WeatherDisplay:10.37,2013-02-28 19:20:00,
2013-02-28 14:25:00,42.5,27.0,29.61,West,281,17.1,19.6,54,0.00,OVC,,0.00,397.0,WeatherDisplay:10.37,2013-02-28 19:25:00,
2013-02-28 14:30:00,42.8,25.4,29.61,WNW,284,20.6,23.0,50,0.00,OVC,,0.00,285.0,WeatherDisplay:10.37,2013-02-28 19:30:00,
2013-02-28 14:35:00,42.6,25.2,29.61,West,280,17.5,23.0,50,0.00,OVC,,0.00,211.0,WeatherDisplay:10.37,2013-02-28 19:35:00,
2013-02-28 14:40:00,42.3,25.9,29.61,West,275,11.8,15.0,52,0.00,OVC,,0.00,153.0,WeatherDisplay:10.37,2013-02-28 19:40:00,
2013-02-28 14:45:00,42.3,25.4,29.61,WNW,300,11.4,16.1,51,0.00,OVC,,0.00,148.0,WeatherDisplay:10.37,2013-02-28 19:45:00,
2013-02-28 14:50:00,42.3,25.9,29.61,West,263,12.0,18.4,52,0.00,OVC,,0.00,102.0,WeatherDisplay:10.37,2013-02-28 19:50:00,
2013-02-28 14:55:00,42.2,25.8,29.61,West,264,8.4,15.0,52,0.00,OVC,,0.00,162.0,WeatherDisplay:10.37,2013-02-28 19:55:00,
2013-02-28 15:00:00,42.2,25.8,29.61,SW,224,7.3,16.5,52,0.00,OVC,,0.00,209.0,WeatherDisplay:10.37,2013-02-28 20:00:00,
2013-02-28 15:05:00,42.3,25.9,29.61,WNW,297,15.6,16.1,52,0.00,OVC,,0.00,218.0,WeatherDisplay:10.37,2013-02-28 20:05:00,
2013-02-28 15:10:00,42.5,26.6,29.61,WNW,300,12.7,16.5,53,0.00,OVC,,0.00,185.0,WeatherDisplay:10.37,2013-02-28 20:10:00,
2013-02-28 15:15:00,42.6,25.7,29.61,West,277,20.5,20.5,51,0.00,OVC,,0.00,188.0,WeatherDisplay:10.37,2013-02-28 20:15:00,
2013-02-28 15:20:00,42.6,26.2,29.61,West,271,11.7,16.1,52,0.00,OVC,,0.00,207.0,WeatherDisplay:10.37,2013-02-28 20:20:00,
2013-02-28 15:25:00,42.9,26.5,29.61,West,275,16.8,20.7,52,0.00,OVC,,0.00,338.0,WeatherDisplay:10.37,2013-02-28 20:25:00,
2013-02-28 15:30:00,43.1,26.2,29.61,WNW,295,13.2,19.6,51,0.00,OVC,,0.00,267.0,WeatherDisplay:10.37,2013-02-28 20:30:00,
2013-02-28 15:35:00,42.9,26.0,29.61,WNW,299,16.6,18.4,51,0.00,OVC,,0.00,214.0,WeatherDisplay:10.37,2013-02-28 20:35:00,
2013-02-28 15:40:00,42.8,26.8,29.61,West,279,20.2,21.0,53,0.00,OVC,,0.00,236.0,WeatherDisplay:10.37,2013-02-28 20:40:00,
2013-02-28 15:45:00,42.6,26.6,29.61,West,269,15.6,24.2,53,0.00,OVC,,0.00,195.0,WeatherDisplay:10.37,2013-02-28 20:45:00,
2013-02-28 15:50:00,42.3,26.4,29.61,West,268,15.9,19.6,53,0.00,OVC,,0.00,165.0,WeatherDisplay:10.37,2013-02-28 20:50:00,
2013-02-28 15:55:00,42.2,26.7,29.62,WNW,290,14.8,16.5,54,0.00,OVC,,0.00,176.0,WeatherDisplay:10.37,2013-02-28 20:55:00,
2013-02-28 16:00:00,42.1,26.2,29.62,WNW,292,9.4,15.0,53,0.00,OVC,,0.00,165.0,WeatherDisplay:10.37,2013-02-28 21:00:00,
2013-02-28 16:06:00,41.8,26.4,29.62,West,271,9.3,13.8,54,0.00,OVC,,0.00,132.0,WeatherDisplay:10.37,2013-02-28 21:06:00,
2013-02-28 16:11:00,41.6,27.1,29.62,WNW,302,9.3,15.0,56,0.00,OVC,,0.00,107.0,WeatherDisplay:10.37,2013-02-28 21:11:00,
2013-02-28 16:16:00,41.3,26.8,29.63,SW,225,17.3,20.7,56,0.00,OVC,,0.00,114.0,WeatherDisplay:10.37,2013-02-28 21:16:00,
2013-02-28 16:21:00,41.2,27.1,29.62,NW,307,20.8,25.5,57,0.00,OVC,,0.00,116.0,WeatherDisplay:10.37,2013-02-28 21:21:00,
2013-02-28 16:26:00,41.1,27.0,29.62,West,265,15.4,16.5,57,0.00,OVC,,0.00,105.0,WeatherDisplay:10.37,2013-02-28 21:26:00,
2013-02-28 16:31:00,41.1,27.0,29.62,WNW,292,3.9,8.1,57,0.00,OVC,,0.00,93.0,WeatherDisplay:10.37,2013-02-28 21:31:00,
2013-02-28 16:36:00,41.1,27.4,29.62,WNW,290,10.4,18.4,58,0.00,OVC,,0.00,95.0,WeatherDisplay:10.37,2013-02-28 21:36:00,
2013-02-28 16:41:00,41.1,27.4,29.63,West,277,11.6,15.0,58,0.00,OVC,,0.00,98.0,WeatherDisplay:10.37,2013-02-28 21:41:00,
2013-02-28 16:46:00,41.2,27.1,29.63,NW,313,16.0,18.4,57,0.00,OVC,,0.00,95.0,WeatherDisplay:10.37,2013-02-28 21:46:00,
2013-02-28 16:51:00,41.1,27.4,29.63,NW,309,15.6,16.5,58,0.00,OVC,,0.00,97.0,WeatherDisplay:10.37,2013-02-28 21:51:00,
2013-02-28 16:56:00,41.1,27.4,29.63,WNW,290,2.9,8.1,58,0.00,OVC,,0.00,86.0,WeatherDisplay:10.37,2013-02-28 21:56:00,
2013-02-28 17:01:00,41.2,27.5,29.63,WNW,292,11.1,18.0,58,0.00,OVC,,0.00,90.0,WeatherDisplay:10.37,2013-02-28 22:01:00,
2013-02-28 17:06:00,41.2,27.1,29.63,WNW,287,15.0,20.7,57,0.00,OVC,,0.00,107.0,WeatherDisplay:10.37,2013-02-28 22:06:00,
2013-02-28 17:11:00,41.2,27.1,29.63,West,265,14.0,16.5,57,0.00,OVC,,0.00,90.0,WeatherDisplay:10.37,2013-02-28 22:11:00,
2013-02-28 17:16:00,41.1,27.4,29.64,WNW,288,12.2,15.0,58,0.00,OVC,,0.00,70.0,WeatherDisplay:10.37,2013-02-28 22:16:00,
2013-02-28 17:21:00,40.9,27.2,29.64,NW,305,12.6,15.0,58,0.00,OVC,,0.00,46.0,WeatherDisplay:10.37,2013-02-28 22:21:00,
2013-02-28 17:26:00,40.8,27.2,29.64,WNW,293,16.8,18.4,58,0.00,OVC,,0.00,28.0,WeatherDisplay:10.37,2013-02-28 22:26:00,
2013-02-28 17:31:00,40.5,26.9,29.64,WNW,300,16.7,18.4,58,0.00,OVC,,0.00,18.0,WeatherDisplay:10.37,2013-02-28 22:31:00,
2013-02-28 17:36:00,40.5,27.3,29.65,West,273,8.7,11.5,59,0.00,OVC,,0.00,21.0,WeatherDisplay:10.37,2013-02-28 22:36:00,
2013-02-28 17:41:00,40.5,27.3,29.65,West,277,5.5,6.0,59,0.00,OVC,,0.00,14.0,WeatherDisplay:10.37,2013-02-28 22:41:00,
2013-02-28 17:46:00,40.3,27.5,29.65,WNW,286,6.3,13.5,60,0.00,OVC,,0.00,11.0,WeatherDisplay:10.37,2013-02-28 22:46:00,
2013-02-28 17:51:00,40.3,27.5,29.65,WNW,289,8.5,9.2,60,0.00,OVC,,0.00,0.0,WeatherDisplay:10.37,2013-02-28 22:51:00,
2013-02-28 17:56:00,40.2,27.4,29.65,WSW,240,6.9,10.4,60,0.00,OVC,,0.00,0.0,WeatherDisplay:10.37,2013-02-28 22:56:00,
2013-02-28 18:01:00,40.2,27.4,29.66,WSW,244,4.6,10.5,60,0.00,OVC,,0.00,0.0,WeatherDisplay:10.37,2013-02-28 23:01:00,
2013-02-28 18:06:00,40.1,27.7,29.66,West,264,3.8,7.5,61,0.00,OVC,,0.00,0.0,WeatherDisplay:10.37,2013-02-28 23:06:00,
2013-02-28 18:11:00,40.1,28.1,29.66,WSW,240,4.1,6.0,62,0.00,OVC,,0.00,0.0,WeatherDisplay:10.37,2013-02-28 23:11:00,
2013-02-28 18:16:00,39.9,28.3,29.66,SW,234,6.0,9.2,63,0.00,BKN,,0.00,0.0,WeatherDisplay:10.37,2013-02-28 23:16:00,
2013-02-28 18:21:00,39.6,28.8,29.66,SW,234,5.9,6.0,65,0.00,BKN,,0.00,0.0,WeatherDisplay:10.37,2013-02-28 23:21:00,
2013-02-28 18:26:00,39.5,28.7,29.66,SW,236,6.1,8.1,65,0.00,BKN,,0.00,0.0,WeatherDisplay:10.37,2013-02-28 23:26:00,
2013-02-28 18:31:00,39.3,28.9,29.67,SW,230,3.8,4.6,66,0.00,BKN,,0.00,0.0,WeatherDisplay:10.37,2013-02-28 23:31:00,
2013-02-28 18:36:00,39.2,29.2,29.67,SW,236,4.7,4.7,67,0.00,BKN,,0.00,0.0,WeatherDisplay:10.37,2013-02-28 23:36:00,
2013-02-28 18:41:00,39.1,29.1,29.67,SW,235,2.1,5.8,67,0.00,BKN,,0.00,0.0,WeatherDisplay:10.37,2013-02-28 23:41:00,
2013-02-28 18:46:00,39.1,29.1,29.67,WSW,242,2.6,4.6,67,0.00,BKN,,0.00,0.0,WeatherDisplay:10.37,2013-02-28 23:46:00,
2013-02-28 18:51:00,38.9,28.9,29.67,WSW,242,2.8,4.6,67,0.00,BKN,,0.00,0.0,WeatherDisplay:10.37,2013-02-28 23:51:00,
2013-02-28 18:56:00,38.9,28.9,29.67,WSW,243,1.4,6.0,67,0.00,BKN,,0.00,0.0,WeatherDisplay:10.37,2013-02-28 23:56:00,
2013-02-28 19:01:00,38.9,28.9,29.68,WSW,244,0.7,3.0,67,0.00,BKN,,0.00,0.0,WeatherDisplay:10.37,2013-03-01 00:01:00,
2013-02-28 19:06:00,39.1,28.3,29.67,West,279,3.7,5.8,65,0.00,OVC,,0.00,0.0,WeatherDisplay:10.37,2013-03-01 00:06:00,
2013-02-28 19:11:00,39.2,28.4,29.68,WNW,282,0.4,3.5,65,0.00,OVC,,0.00,0.0,WeatherDisplay:10.37,2013-03-01 00:11:00,
2013-02-28 19:16:00,39.3,28.1,29.68,WNW,292,3.9,8.1,64,0.00,OVC,,0.00,0.0,WeatherDisplay:10.37,2013-03-01 00:16:00,
2013-02-28 19:21:00,39.5,27.5,29.68,WNW,295,3.2,6.0,62,0.00,OVC,,0.00,0.0,WeatherDisplay:10.37,2013-03-01 00:21:00,
2013-02-28 19:26:00,39.6,27.2,29.68,WNW,297,5.8,8.1,61,0.00,OVC,,0.00,0.0,WeatherDisplay:10.37,2013-03-01 00:26:00,
2013-02-28 19:31:00,39.8,27.0,29.68,NW,313,5.3,10.4,60,0.00,OVC,,0.00,0.0,WeatherDisplay:10.37,2013-03-01 00:31:00,
2013-02-28 19:36:00,39.9,27.1,29.68,West,273,3.3,9.2,60,0.00,OVC,,0.00,0.0,WeatherDisplay:10.37,2013-03-01 00:36:00,
2013-02-28 19:41:00,39.9,27.1,29.68,West,278,6.4,9.0,60,0.00,OVC,,0.00,0.0,WeatherDisplay:10.37,2013-03-01 00:41:00,
2013-02-28 19:46:00,40.1,27.3,29.68,WNW,289,2.4,4.6,60,0.00,OVC,,0.00,0.0,WeatherDisplay:10.37,2013-03-01 00:46:00,
2013-02-28 19:51:00,40.1,27.3,29.68,West,280,4.9,8.1,60,0.00,OVC,,0.00,0.0,WeatherDisplay:10.37,2013-03-01 00:51:00,
2013-02-28 19:56:00,40.1,27.3,29.68,WNW,301,6.2,9.2,60,0.00,OVC,,0.00,0.0,WeatherDisplay:10.37,2013-03-01 00:56:00,
2013-02-28 20:01:00,40.1,27.3,29.68,WNW,288,5.0,7.5,60,0.00,OVC,,0.00,0.0,WeatherDisplay:10.37,2013-03-01 01:01:00,
2013-02-28 20:06:00,39.9,27.1,29.68,WNW,286,4.8,9.2,60,0.00,OVC,,0.00,0.0,WeatherDisplay:10.37,2013-03-01 01:06:00,
2013-02-28 20:11:00,39.9,27.1,29.69,NW,306,6.1,9.2,60,0.00,OVC,,0.00,0.0,WeatherDisplay:10.37,2013-03-01 01:11:00,
2013-02-28 20:16:00,39.9,27.5,29.69,WNW,298,8.6,9.2,61,0.00,OVC,,0.00,0.0,WeatherDisplay:10.37,2013-03-01 01:16:00,
2013-02-28 20:21:00,39.9,27.5,29.69,WNW,288,3.7,4.6,61,0.00,OVC,,0.00,0.0,WeatherDisplay:10.37,2013-03-01 01:21:00,
2013-02-28 20:26:00,39.9,27.5,29.69,NW,304,6.3,9.2,61,0.00,OVC,,0.00,0.0,WeatherDisplay:10.37,2013-03-01 01:26:00,
2013-02-28 20:31:00,39.9,27.9,29.69,West,263,4.8,8.1,62,0.00,OVC,,0.00,0.0,WeatherDisplay:10.37,2013-03-01 01:31:00,
2013-02-28 20:36:00,39.9,27.9,29.69,WNW,292,2.9,5.8,62,0.00,OVC,,0.00,0.0,WeatherDisplay:10.37,2013-03-01 01:36:00,
2013-02-28 20:41:00,39.9,27.9,29.69,West,279,9.5,13.8,62,0.00,OVC,,0.00,0.0,WeatherDisplay:10.37,2013-03-01 01:41:00,
2013-02-28 20:46:00,39.9,27.9,29.69,WNW,290,7.0,15.0,62,0.00,OVC,,0.00,0.0,WeatherDisplay:10.37,2013-03-01 01:46:00,
2013-02-28 20:51:00,39.9,27.9,29.69,WNW,300,4.1,9.0,62,0.00,OVC,,0.00,0.0,WeatherDisplay:10.37,2013-03-01 01:51:00,
2013-02-28 20:56:00,39.9,28.3,29.69,West,261,7.6,8.1,63,0.00,OVC,,0.00,0.0,WeatherDisplay:10.37,2013-03-01 01:56:00,
2013-02-28 21:01:00,39.9,27.9,29.69,WNW,300,10.4,15.0,62,0.00,OVC,,0.00,0.0,WeatherDisplay:10.37,2013-03-01 02:01:00,
2013-02-28 21:06:00,39.9,28.3,29.69,WNW,290,10.0,15.0,63,0.00,OVC,,0.00,0.0,WeatherDisplay:10.37,2013-03-01 02:06:00,
2013-02-28 21:11:00,39.9,28.3,29.70,WNW,286,3.3,7.5,63,0.00,OVC,,0.00,0.0,WeatherDisplay:10.37,2013-03-01 02:11:00,
2013-02-28 21:16:00,39.9,28.3,29.70,NW,304,4.3,10.5,63,0.00,OVC,,0.00,0.0,WeatherDisplay:10.37,2013-03-01 02:16:00,
2013-02-28 21:21:00,40.1,28.5,29.70,WNW,296,4.3,10.4,63,0.00,OVC,,0.00,0.0,WeatherDisplay:10.37,2013-03-01 02:21:00,
2013-02-28 21:26:00,40.1,28.5,29.70,WNW,292,7.7,11.5,63,0.00,OVC,,0.00,0.0,WeatherDisplay:10.37,2013-03-01 02:26:00,
2013-02-28 21:31:00,40.1,28.5,29.70,WNW,302,7.9,9.2,63,0.00,OVC,,0.00,0.0,WeatherDisplay:10.37,2013-03-01 02:31:00,
2013-02-28 21:36:00,40.1,28.5,29.70,WNW,303,12.7,18.0,63,0.00,OVC,,0.00,0.0,WeatherDisplay:10.37,2013-03-01 02:36:00,
2013-02-28 21:42:00,40.1,28.9,29.70,WNW,296,8.7,15.0,64,0.00,OVC,,0.00,0.0,WeatherDisplay:10.37,2013-03-01 02:42:00,
2013-02-28 21:47:00,40.1,28.9,29.70,NW,313,6.4,13.8,64,0.00,OVC,,0.00,0.0,WeatherDisplay:10.37,2013-03-01 02:47:00,
2013-02-28 21:52:00,40.1,28.9,29.70,NW,309,9.0,10.4,64,0.00,OVC,,0.00,0.0,WeatherDisplay:10.37,2013-03-01 02:52:00,
2013-02-28 21:57:00,40.1,29.3,29.70,WNW,293,6.4,7.5,65,0.00,OVC,,0.00,0.0,WeatherDisplay:10.37,2013-03-01 02:57:00,
2013-02-28 22:02:00,39.9,29.1,29.70,NW,319,8.1,10.5,65,0.00,OVC,,0.00,0.0,WeatherDisplay:10.37,2013-03-01 03:02:00,
2013-02-28 22:07:00,39.9,29.1,29.70,NNW,328,18.9,18.9,65,0.00,OVC,,0.00,0.0,WeatherDisplay:10.37,2013-03-01 03:07:00,
2013-02-28 22:12:00,39.9,29.1,29.70,West,270,9.0,16.1,65,0.00,OVC,,0.00,0.0,WeatherDisplay:10.37,2013-03-01 03:12:00,
2013-02-28 22:17:00,39.9,29.1,29.70,NW,311,9.8,13.8,65,0.00,OVC,,0.00,0.0,WeatherDisplay:10.37,2013-03-01 03:17:00,
2013-02-28 22:22:00,39.9,29.1,29.70,West,276,7.3,10.4,65,0.00,OVC,,0.00,0.0,WeatherDisplay:10.37,2013-03-01 03:22:00,
2013-02-28 22:27:00,39.8,29.4,29.70,WNW,286,10.6,15.0,66,0.00,OVC,,0.00,0.0,WeatherDisplay:10.37,2013-03-01 03:27:00,
2013-02-28 22:32:00,39.8,29.4,29.70,NW,315,5.2,6.0,66,0.00,OVC,,0.00,0.0,WeatherDisplay:10.37,2013-03-01 03:32:00,
2013-02-28 22:37:00,39.6,29.5,29.70,WNW,300,7.6,8.1,67,0.00,OVC,,0.00,0.0,WeatherDisplay:10.37,2013-03-01 03:37:00,
2013-02-28 22:42:00,39.6,29.2,29.70,NW,312,11.4,13.8,66,0.00,OVC,,0.00,0.0,WeatherDisplay:10.37,2013-03-01 03:42:00,
2013-02-28 22:47:00,39.6,29.5,29.70,WNW,286,8.6,10.5,67,0.00,OVC,,0.00,0.0,WeatherDisplay:10.37,2013-03-01 03:47:00,
2013-02-28 22:52:00,39.6,29.5,29.70,NW,313,9.1,13.8,67,0.00,OVC,,0.00,0.0,WeatherDisplay:10.37,2013-03-01 03:52:00,
2013-02-28 22:57:00,39.6,29.5,29.70,NW,320,10.3,10.3,67,0.00,OVC,,0.00,0.0,WeatherDisplay:10.37,2013-03-01 03:57:00,
2013-02-28 23:02:00,39.6,29.5,29.70,NW,319,7.5,8.1,67,0.00,OVC,,0.00,0.0,WeatherDisplay:10.37,2013-03-01 04:02:00,
2013-02-28 23:07:00,39.6,29.5,29.70,NW,319,6.3,9.2,67,0.00,OVC,,0.00,0.0,WeatherDisplay:10.37,2013-03-01 04:07:00,
2013-02-28 23:12:00,39.5,29.8,29.70,NW,316,6.2,6.2,68,0.00,OVC,,0.00,0.0,WeatherDisplay:10.37,2013-03-01 04:12:00,
2013-02-28 23:17:00,39.5,29.8,29.69,NW,317,5.0,8.1,68,0.00,OVC,,0.00,0.0,WeatherDisplay:10.37,2013-03-01 04:17:00,
2013-02-28 23:22:00,39.3,29.6,29.69,NW,309,6.3,9.2,68,0.00,OVC,,0.00,0.0,WeatherDisplay:10.37,2013-03-01 04:22:00,
2013-02-28 23:27:00,39.3,29.6,29.70,NW,309,3.3,4.6,68,0.00,OVC,,0.00,0.0,WeatherDisplay:10.37,2013-03-01 04:27:00,
2013-02-28 23:32:00,39.3,29.6,29.70,WNW,293,6.0,6.0,68,0.00,OVC,,0.00,0.0,WeatherDisplay:10.37,2013-03-01 04:32:00,
2013-02-28 23:37:00,39.3,29.6,29.70,WNW,289,6.2,8.1,68,0.00,OVC,,0.00,0.0,WeatherDisplay:10.37,2013-03-01 04:37:00,
2013-02-28 23:42:00,39.3,29.6,29.70,WNW,291,3.8,4.6,68,0.00,OVC,,0.00,0.0,WeatherDisplay:10.37,2013-03-01 04:42:00,
2013-02-28 23:47:00,39.2,29.5,29.70,NW,323,6.4,8.1,68,0.00,OVC,,0.00,0.0,WeatherDisplay:10.37,2013-03-01 04:47:00,
2013-02-28 23:52:00,39.2,29.5,29.70,NW,317,9.5,13.5,68,0.00,OVC,,0.00,0.0,WeatherDisplay:10.37,2013-03-01 04:52:00,
2013-02-28 23:57:00,39.3,29.6,29.70,WNW,296,5.6,8.1,68,0.00,OVC,,0.00,0.0,WeatherDisplay:10.37,2013-03-01 04:57:00,